createdAt,value
2023-02-18T00:01:42.587Z,101268.78
2023-02-18T00:04:09.977Z,101268.09
2023-02-18T00:06:38.839Z,101271.44
2023-02-18T00:09:06.975Z,101268.50
2023-02-18T00:11:36.811Z,101271.72
2023-02-18T00:14:10.959Z,101272.19
2023-02-18T00:16:38.287Z,101257.25
2023-02-18T00:19:09.462Z,101257.88
2023-02-18T00:21:37.273Z,101256.75
2023-02-18T00:24:07.079Z,101260.78
2023-02-18T00:26:35.585Z,101255.22
2023-02-18T00:29:04.481Z,101251.69
2023-02-18T00:31:36.842Z,101246.44
2023-02-18T00:34:05.839Z,101254.75
2023-02-18T00:36:35.587Z,101248.84
2023-02-18T00:39:07.852Z,101251.91
2023-02-18T00:41:36.518Z,101250.09
2023-02-18T00:44:04.584Z,101251.63
2023-02-18T00:46:32.748Z,101246.31
2023-02-18T00:49:01.884Z,101245.72
2023-02-18T00:51:29.146Z,101243.00
2023-02-18T00:53:57.385Z,101245.81
2023-02-18T00:56:24.776Z,101242.78
2023-02-18T00:58:52.339Z,101239.28
2023-02-18T01:01:20.719Z,101235.22
2023-02-18T01:03:47.975Z,101231.41
2023-02-18T01:06:15.362Z,101229.88
2023-02-18T01:08:43.383Z,101227.56
2023-02-18T01:11:12.658Z,101223.44
2023-02-18T01:13:41.667Z,101231.06
2023-02-18T01:16:09.934Z,101230.03
2023-02-18T01:18:38.980Z,101227.00
2023-02-18T01:21:09.067Z,101221.09
2023-02-18T01:23:41.883Z,101230.56
2023-02-18T01:26:11.623Z,101229.78
2023-02-18T01:28:41.555Z,101222.78
2023-02-18T01:31:13.906Z,101216.94
2023-02-18T01:33:42.302Z,101223.69
2023-02-18T01:36:11.831Z,101227.38
2023-02-18T01:38:39.564Z,101217.50
2023-02-18T01:41:08.045Z,101224.38
2023-02-18T01:43:35.466Z,101216.00
2023-02-18T01:46:18.185Z,101223.34
2023-02-18T01:49:00.750Z,101220.47
2023-02-18T01:51:40.358Z,101214.72
2023-02-18T01:54:39.917Z,101202.53
2023-02-18T01:57:14.706Z,101218.09
2023-02-18T02:00:06.312Z,101212.63
2023-02-18T02:02:47.618Z,101205.28
2023-02-18T02:05:16.725Z,101203.47
2023-02-18T02:07:46.397Z,101215.66
2023-02-18T02:10:16.788Z,101209.25
2023-02-18T02:13:13.071Z,101203.97
2023-02-18T02:15:45.197Z,101194.97
2023-02-18T02:18:50.236Z,101206.13
2023-02-18T02:22:13.499Z,101204.13
2023-02-18T02:25:14.693Z,101202.31
2023-02-18T02:28:21.880Z,101209.31
2023-02-18T02:31:35.914Z,101203.84
2023-02-18T02:34:49.329Z,101204.81
2023-02-18T02:37:42.690Z,101201.63
2023-02-18T02:40:46.441Z,101198.41
2023-02-18T02:43:29.300Z,101197.19
2023-02-18T02:46:13.015Z,101197.19
2023-02-18T02:48:51.465Z,101192.59
2023-02-18T02:51:44.185Z,101188.19
2023-02-18T02:54:21.635Z,101187.47
2023-02-18T02:56:50.334Z,101181.66
2023-02-18T02:59:27.156Z,101180.00
2023-02-18T03:02:55.100Z,101185.34
2023-02-18T03:05:57.859Z,101182.63
2023-02-18T03:09:20.285Z,101185.06
2023-02-18T03:12:58.288Z,101182.91
2023-02-18T03:16:03.953Z,101179.88
2023-02-18T03:18:46.183Z,101181.69
2023-02-18T03:21:35.794Z,101175.16
2023-02-18T03:24:21.468Z,101178.19
2023-02-18T03:26:56.731Z,101172.72
2023-02-18T03:29:25.025Z,101180.19
2023-02-18T03:32:02.329Z,101178.38
2023-02-18T03:34:36.593Z,101187.66
2023-02-18T03:37:03.945Z,101187.22
2023-02-18T03:39:35.242Z,101183.25
2023-02-18T03:42:04.717Z,101183.28
2023-02-18T03:44:32.303Z,101183.75
2023-02-18T03:46:59.702Z,101186.19
2023-02-18T03:49:26.925Z,101177.78
2023-02-18T03:51:54.184Z,101183.88
2023-02-18T03:54:21.567Z,101177.06
2023-02-18T03:56:48.905Z,101171.59
2023-02-18T03:59:16.145Z,101172.34
2023-02-18T04:01:43.538Z,101182.72
2023-02-18T04:04:11.005Z,101179.06
2023-02-18T04:06:38.239Z,101186.53
2023-02-18T04:09:08.877Z,101181.22
2023-02-18T04:11:40.739Z,101185.19
2023-02-18T04:14:09.436Z,101188.22
2023-02-18T04:16:36.669Z,101187.03
2023-02-18T04:19:04.056Z,101192.94
2023-02-18T04:21:31.406Z,101187.63
2023-02-18T04:23:59.088Z,101189.63
2023-02-18T04:26:26.367Z,101186.09
2023-02-18T04:28:54.662Z,101183.38
2023-02-18T04:31:22.221Z,101192.94
2023-02-18T04:33:49.647Z,101190.53
2023-02-18T04:36:16.908Z,101194.91
2023-02-18T04:38:44.174Z,101191.13
2023-02-18T04:41:12.763Z,101191.44
2023-02-18T04:43:40.010Z,101191.00
2023-02-18T04:46:07.593Z,101197.22
2023-02-18T04:48:35.279Z,101203.75
2023-02-18T04:51:03.272Z,101200.28
2023-02-18T04:53:30.548Z,101206.19
2023-02-18T04:55:57.812Z,101197.06
2023-02-18T04:58:25.195Z,101190.69
2023-02-18T05:00:53.869Z,101197.97
2023-02-18T05:03:21.560Z,101196.63
2023-02-18T05:05:48.878Z,101196.31
2023-02-18T05:08:16.353Z,101205.88
2023-02-18T05:10:43.613Z,101199.78
2023-02-18T05:13:10.948Z,101201.03
2023-02-18T05:15:38.268Z,101202.84
2023-02-18T05:18:05.841Z,101204.22
2023-02-18T05:20:33.542Z,101208.47
2023-02-18T05:23:00.764Z,101205.00
2023-02-18T05:25:28.196Z,101199.78
2023-02-18T05:27:55.493Z,101201.47
2023-02-18T05:30:22.704Z,101211.22
2023-02-18T05:32:50.020Z,101206.34
2023-02-18T05:35:17.468Z,101207.84
2023-02-18T05:37:44.708Z,101206.66
2023-02-18T05:40:14.422Z,101211.50
2023-02-18T05:42:41.708Z,101214.09
2023-02-18T05:45:09.656Z,101203.75
2023-02-18T05:47:37.027Z,101203.44
2023-02-18T05:50:05.583Z,101204.69
2023-02-18T05:52:32.815Z,101214.41
2023-02-18T05:55:00.089Z,101227.78
2023-02-18T05:57:27.296Z,101222.16
2023-02-18T05:59:54.540Z,101223.19
2023-02-18T06:02:21.846Z,101229.00
2023-02-18T06:04:49.244Z,101234.75
2023-02-18T06:07:16.620Z,101232.59
2023-02-18T06:09:44.297Z,101245.69
2023-02-18T06:12:11.531Z,101242.31
2023-02-18T06:14:42.206Z,101238.25
2023-02-18T06:17:12.185Z,101236.69
2023-02-18T06:19:39.790Z,101235.97
2023-02-18T06:22:08.078Z,101236.91
2023-02-18T06:24:37.906Z,101236.59
2023-02-18T06:27:05.353Z,101233.53
2023-02-18T06:29:32.739Z,101228.53
2023-02-18T06:32:00.399Z,101237.06
2023-02-18T06:34:28.125Z,101233.44
2023-02-18T06:36:55.486Z,101235.09
2023-02-18T06:39:22.865Z,101239.34
2023-02-18T06:41:50.029Z,101243.28
2023-02-18T06:44:17.404Z,101249.22
2023-02-18T06:46:45.228Z,101255.16
2023-02-18T06:49:12.588Z,101264.88
2023-02-18T06:51:39.767Z,101260.63
2023-02-18T06:54:07.135Z,101265.19
2023-02-18T06:56:34.437Z,101265.38
2023-02-18T06:59:01.757Z,101265.06
2023-02-18T07:01:30.011Z,101260.34
2023-02-18T07:03:57.201Z,101268.88
2023-02-18T07:06:24.561Z,101269.94
2023-02-18T07:08:51.777Z,101274.97
2023-02-18T07:11:18.983Z,101264.03
2023-02-18T07:13:46.246Z,101271.16
2023-02-18T07:16:13.584Z,101270.13
2023-02-18T07:18:40.913Z,101272.53
2023-02-18T07:21:08.236Z,101276.81
2023-02-18T07:23:35.580Z,101274.38
2023-02-18T07:26:10.604Z,101277.41
2023-02-18T07:28:39.632Z,101274.19
2023-02-18T07:31:07.480Z,101267.81
2023-02-18T07:33:34.930Z,101271.75
2023-02-18T07:36:03.970Z,101267.63
2023-02-18T07:38:31.503Z,101278.28
2023-02-18T07:40:59.628Z,101270.78
2023-02-18T07:43:27.149Z,101258.53
2023-02-18T07:45:55.124Z,101261.25
2023-02-18T07:48:22.347Z,101261.94
2023-02-18T07:50:49.632Z,101259.13
2023-02-18T07:53:17.424Z,101261.75
2023-02-18T07:55:50.690Z,101266.34
2023-02-18T07:58:26.226Z,101256.81
2023-02-18T08:00:54.638Z,101259.63
2023-02-18T08:03:28.925Z,101258.38
2023-02-18T08:05:57.647Z,101263.34
2023-02-18T08:08:29.664Z,101254.88
2023-02-18T08:11:18.108Z,101259.34
2023-02-18T08:13:47.381Z,101262.63
2023-02-18T08:16:20.854Z,101254.59
2023-02-18T08:18:50.805Z,101252.03
2023-02-18T08:21:20.966Z,101257.84
2023-02-18T08:23:48.857Z,101255.25
2023-02-18T08:26:17.122Z,101261.25
2023-02-18T08:28:47.031Z,101256.94
2023-02-18T08:31:30.402Z,101260.47
2023-02-18T08:34:00.566Z,101265.44
2023-02-18T08:36:30.394Z,101269.78
2023-02-18T08:38:58.422Z,101263.97
2023-02-18T08:41:25.604Z,101268.41
2023-02-18T08:43:52.959Z,101267.38
2023-02-18T08:46:33.191Z,101271.06
2023-02-18T08:49:05.466Z,101267.00
2023-02-18T08:51:33.578Z,101263.25
2023-02-18T08:54:00.864Z,101265.34
2023-02-18T08:56:28.270Z,101261.56
2023-02-18T08:58:55.419Z,101268.84
2023-02-18T09:01:22.733Z,101262.97
2023-02-18T09:03:50.023Z,101266.63
2023-02-18T09:06:17.224Z,101262.19
2023-02-18T09:08:45.024Z,101256.84
2023-02-18T09:11:12.427Z,101255.13
2023-02-18T09:13:39.837Z,101254.88
2023-02-18T09:16:13.434Z,101255.34
2023-02-18T09:18:41.146Z,101250.44
2023-02-18T09:21:11.949Z,101252.38
2023-02-18T09:23:40.139Z,101249.56
2023-02-18T09:26:11.896Z,101239.47
2023-02-18T09:28:39.628Z,101243.88
2023-02-18T09:31:16.156Z,101241.16
2023-02-18T09:34:01.262Z,101243.75
2023-02-18T09:36:29.370Z,101242.38
2023-02-18T09:38:56.837Z,101241.88
2023-02-18T09:41:39.905Z,101231.34
2023-02-18T09:44:52.862Z,101227.25
2023-02-18T09:47:39.854Z,101222.22
2023-02-18T09:50:32.708Z,101219.53
2023-02-18T09:53:03.464Z,101215.66
2023-02-18T09:55:39.584Z,101219.25
2023-02-18T09:58:21.831Z,101214.38
2023-02-18T10:01:27.970Z,101216.44
2023-02-18T10:04:01.802Z,101201.13
2023-02-18T10:06:35.227Z,101207.41
2023-02-18T10:09:22.990Z,101204.09
2023-02-18T10:12:19.670Z,101201.72
2023-02-18T10:14:55.338Z,101201.84
2023-02-18T10:17:28.607Z,101196.50
2023-02-18T10:19:58.537Z,101188.34
2023-02-18T10:22:27.774Z,101190.94
2023-02-18T10:25:00.768Z,101180.66
2023-02-18T10:27:36.388Z,101188.06
2023-02-18T10:30:24.859Z,101183.19
2023-02-18T10:33:08.196Z,101183.16
2023-02-18T10:35:46.039Z,101185.53
2023-02-18T10:39:02.994Z,101175.56
2023-02-18T10:42:19.844Z,101173.91
2023-02-18T10:45:16.642Z,101173.53
2023-02-18T10:48:15.969Z,101157.31
2023-02-18T10:50:45.600Z,101142.41
2023-02-18T10:53:31.506Z,101155.00
2023-02-18T10:55:59.050Z,101145.13
2023-02-18T10:58:46.518Z,101135.69
2023-02-18T11:01:21.269Z,101138.09
2023-02-18T11:04:05.545Z,101134.56
2023-02-18T11:06:48.605Z,101143.22
2023-02-18T11:09:46.525Z,101138.50
2023-02-18T11:12:49.320Z,101129.09
2023-02-18T11:15:26.114Z,101129.59
2023-02-18T11:18:12.754Z,101128.28
2023-02-18T11:20:40.677Z,101117.69
2023-02-18T11:23:07.728Z,101102.13
2023-02-18T11:25:41.201Z,101103.00
2023-02-18T11:28:17.239Z,101094.56
2023-02-18T11:30:53.351Z,101101.31
2023-02-18T11:33:34.802Z,101100.28
2023-02-18T11:36:24.103Z,101103.13
2023-02-18T11:39:04.516Z,101087.50
2023-02-18T11:41:44.684Z,101077.94
2023-02-18T11:44:36.610Z,101079.72
2023-02-18T11:47:13.223Z,101084.53
2023-02-18T11:49:43.688Z,101077.34
2023-02-18T11:52:35.648Z,101078.81
2023-02-18T11:55:31.009Z,101059.13
2023-02-18T11:58:05.621Z,101059.59
2023-02-18T12:00:47.327Z,101048.38
2023-02-18T12:04:01.347Z,101048.75
2023-02-18T12:06:57.389Z,101045.78
2023-02-18T12:09:37.528Z,101046.47
2023-02-18T12:12:14.555Z,101040.44
2023-02-18T12:14:41.869Z,101037.41
2023-02-18T12:17:30.857Z,101025.44
2023-02-18T12:20:38.522Z,101012.81
2023-02-18T12:23:43.082Z,101002.34
2023-02-18T12:26:37.288Z,100991.88
2023-02-18T12:29:51.486Z,100995.53
2023-02-18T12:32:52.691Z,100991.34
2023-02-18T12:36:12.655Z,100989.94
2023-02-18T12:38:56.117Z,100985.69
2023-02-18T12:41:57.348Z,100974.63
2023-02-18T12:45:38.691Z,100977.69
2023-02-18T12:48:55.456Z,100974.16
2023-02-18T12:51:56.976Z,100966.34
2023-02-18T12:54:47.737Z,100963.50
2023-02-18T12:57:44.044Z,100959.31
2023-02-18T13:00:32.604Z,100946.13
2023-02-18T13:03:38.874Z,100951.06
2023-02-18T13:06:47.559Z,100946.84
2023-02-18T13:09:38.677Z,100933.53
2023-02-18T13:12:47.893Z,100935.53
2023-02-18T13:15:41.118Z,100927.69
2023-02-18T13:18:40.843Z,100917.97
2023-02-18T13:21:13.713Z,100910.69
2023-02-18T13:24:12.092Z,100902.88
2023-02-18T13:26:41.826Z,100900.16
2023-02-18T13:29:35.160Z,100902.69
2023-02-18T13:32:29.755Z,100901.56
2023-02-18T13:35:27.561Z,100897.88
2023-02-18T13:38:17.687Z,100883.91
2023-02-18T13:40:45.512Z,100880.44
2023-02-18T13:43:35.703Z,100877.94
2023-02-18T13:46:20.474Z,100873.59
2023-02-18T13:49:01.137Z,100867.97
2023-02-18T13:51:44.607Z,100872.19
2023-02-18T13:54:17.553Z,100870.34
2023-02-18T13:57:07.806Z,100856.66
2023-02-18T13:59:44.434Z,100852.00
2023-02-18T14:02:20.809Z,100858.53
2023-02-18T14:05:08.674Z,100849.53
2023-02-18T14:07:44.200Z,100860.41
2023-02-18T14:10:16.994Z,100848.59
2023-02-18T14:12:56.168Z,100847.84
2023-02-18T14:15:23.342Z,100845.53
2023-02-18T14:18:13.704Z,100839.13
2023-02-18T14:20:40.728Z,100839.63
2023-02-18T14:23:22.627Z,100836.19
2023-02-18T14:26:12.475Z,100835.78
2023-02-18T14:28:47.858Z,100834.34
2023-02-18T14:31:46.218Z,100828.03
2023-02-18T14:35:17.883Z,100825.47
2023-02-18T14:38:23.628Z,100829.59
2023-02-18T14:41:46.432Z,100826.81
2023-02-18T14:45:09.926Z,100823.13
2023-02-18T14:48:24.699Z,100816.72
2023-02-18T14:50:53.252Z,100814.97
2023-02-18T14:53:25.148Z,100817.28
2023-02-18T14:56:01.975Z,100817.75
2023-02-18T14:58:43.134Z,100824.44
2023-02-18T15:01:33.069Z,100820.06
2023-02-18T15:04:03.032Z,100818.28
2023-02-18T15:06:37.584Z,100814.84
2023-02-18T15:09:20.471Z,100813.81
2023-02-18T15:12:00.800Z,100810.91
2023-02-18T15:14:39.755Z,100802.97
2023-02-18T15:17:15.699Z,100802.91
2023-02-18T15:19:50.726Z,100805.38
2023-02-18T15:22:27.053Z,100799.84
2023-02-18T15:24:55.856Z,100798.16
2023-02-18T15:27:39.222Z,100807.88
2023-02-18T15:30:31.201Z,100805.06
2023-02-18T15:33:01.179Z,100788.38
2023-02-18T15:35:33.275Z,100790.06
2023-02-18T15:38:01.907Z,100794.78
2023-02-18T15:40:37.538Z,100790.22
2023-02-18T15:43:06.579Z,100790.06
2023-02-18T15:45:44.731Z,100792.91
2023-02-18T15:48:44.465Z,100782.56
2023-02-18T15:51:22.209Z,100785.28
2023-02-18T15:53:55.086Z,100778.13
2023-02-18T15:56:36.833Z,100781.44
2023-02-18T15:59:17.463Z,100784.34
2023-02-18T16:01:57.768Z,100784.56
2023-02-18T16:04:33.811Z,100785.13
2023-02-18T16:07:20.466Z,100780.09
2023-02-18T16:09:47.721Z,100775.34
2023-02-18T16:12:32.399Z,100789.84
2023-02-18T16:15:00.924Z,100786.56
2023-02-18T16:17:29.930Z,100783.00
2023-02-18T16:20:24.749Z,100788.41
2023-02-18T16:22:55.002Z,100781.75
2023-02-18T16:25:35.831Z,100782.25
2023-02-18T16:28:07.050Z,100782.41
2023-02-18T16:30:35.616Z,100787.25
2023-02-18T16:33:03.449Z,100782.06
2023-02-18T16:35:47.456Z,100793.78
2023-02-18T16:38:24.476Z,100790.47
2023-02-18T16:40:54.199Z,100789.22
2023-02-18T16:43:27.307Z,100793.19
2023-02-18T16:45:59.305Z,100789.69
2023-02-18T16:48:40.513Z,100797.72
2023-02-18T16:51:17.995Z,100797.19
2023-02-18T16:53:47.675Z,100803.66
2023-02-18T16:56:32.678Z,100799.84
2023-02-18T16:59:00.115Z,100801.31
2023-02-18T17:01:31.842Z,100804.00
2023-02-18T17:04:02.063Z,100808.16
2023-02-18T17:06:29.948Z,100806.16
2023-02-18T17:08:57.229Z,100816.75
2023-02-18T17:11:32.541Z,100814.97
2023-02-18T17:14:00.604Z,100817.81
2023-02-18T17:16:28.808Z,100824.72
2023-02-18T17:18:56.074Z,100821.03
2023-02-18T17:21:25.723Z,100828.47
2023-02-18T17:23:53.687Z,100834.44
2023-02-18T17:26:27.835Z,100843.59
2023-02-18T17:28:59.048Z,100845.78
2023-02-18T17:31:44.328Z,100844.66
2023-02-18T17:34:25.534Z,100849.19
2023-02-18T17:36:52.763Z,100843.66
2023-02-18T17:39:21.301Z,100847.03
2023-02-18T17:41:48.707Z,100855.22
2023-02-18T17:44:25.965Z,100854.84
2023-02-18T17:46:54.785Z,100850.66
2023-02-18T17:49:22.558Z,100852.25
2023-02-18T17:51:53.101Z,100855.16
2023-02-18T17:54:22.803Z,100852.84
2023-02-18T17:56:50.286Z,100847.59
2023-02-18T17:59:17.502Z,100856.97
2023-02-18T18:01:44.789Z,100859.34
2023-02-18T18:04:19.001Z,100862.78
2023-02-18T18:06:47.047Z,100860.44
2023-02-18T18:09:14.442Z,100863.59
2023-02-18T18:11:41.708Z,100856.19
2023-02-18T18:14:14.200Z,100867.56
2023-02-18T18:16:41.393Z,100861.50
2023-02-18T18:19:08.603Z,100856.19
2023-02-18T18:21:36.767Z,100860.72
2023-02-18T18:24:04.980Z,100869.16
2023-02-18T18:26:32.293Z,100864.03
2023-02-18T18:28:59.815Z,100871.03
2023-02-18T18:31:27.061Z,100867.78
2023-02-18T18:33:54.384Z,100871.78
2023-02-18T18:36:24.078Z,100875.03
2023-02-18T18:38:52.025Z,100870.09
2023-02-18T18:41:23.184Z,100869.16
2023-02-18T18:43:50.968Z,100867.38
2023-02-18T18:46:18.706Z,100865.34
2023-02-18T18:48:46.112Z,100864.59
2023-02-18T18:51:23.250Z,100867.25
2023-02-18T18:53:50.491Z,100874.09
2023-02-18T18:56:17.711Z,100869.97
2023-02-18T18:58:44.941Z,100867.53
2023-02-18T19:01:20.735Z,100870.59
2023-02-18T19:03:48.801Z,100866.88
2023-02-18T19:06:17.096Z,100868.19
2023-02-18T19:08:45.515Z,100878.56
2023-02-18T19:11:14.318Z,100874.84
2023-02-18T19:13:42.275Z,100875.50
2023-02-18T19:16:29.523Z,100876.25
2023-02-18T19:18:56.728Z,100874.03
2023-02-18T19:21:23.912Z,100878.88
2023-02-18T19:23:51.184Z,100883.06
2023-02-18T19:26:18.433Z,100883.41
2023-02-18T19:28:46.811Z,100881.28
2023-02-18T19:31:14.629Z,100882.72
2023-02-18T19:33:45.490Z,100881.91
2023-02-18T19:36:14.697Z,100890.13
2023-02-18T19:38:41.913Z,100895.47
2023-02-18T19:41:13.757Z,100888.56
2023-02-18T19:43:42.685Z,100895.19
2023-02-18T19:46:14.008Z,100892.34
2023-02-18T19:48:42.501Z,100891.47
2023-02-18T19:51:10.656Z,100898.03
2023-02-18T19:53:38.342Z,100892.38
2023-02-18T19:56:07.312Z,100896.41
2023-02-18T19:58:35.805Z,100899.81
2023-02-18T20:01:03.816Z,100891.47
2023-02-18T20:03:31.099Z,100899.22
2023-02-18T20:05:58.308Z,100896.00
2023-02-18T20:08:25.543Z,100901.63
2023-02-18T20:11:00.030Z,100895.19
2023-02-18T20:13:29.024Z,100904.66
2023-02-18T20:15:58.043Z,100893.38
2023-02-18T20:18:25.477Z,100894.97
2023-02-18T20:20:52.655Z,100893.50
2023-02-18T20:23:19.977Z,100895.91
2023-02-18T20:25:47.592Z,100903.53
2023-02-18T20:28:15.898Z,100903.44
2023-02-18T20:30:44.164Z,100901.97
2023-02-18T20:33:11.529Z,100901.81
2023-02-18T20:35:38.733Z,100898.03
2023-02-18T20:38:05.988Z,100906.09
2023-02-18T20:40:33.146Z,100906.44
2023-02-18T20:43:00.530Z,100904.28
2023-02-18T20:45:27.952Z,100906.56
2023-02-18T20:47:55.242Z,100911.59
2023-02-18T20:50:22.442Z,100908.97
2023-02-18T20:52:49.629Z,100906.03
2023-02-18T20:55:16.979Z,100910.47
2023-02-18T20:57:44.224Z,100902.97
2023-02-18T21:00:13.098Z,100912.97
2023-02-18T21:02:40.375Z,100908.56
2023-02-18T21:05:08.238Z,100901.97
2023-02-18T21:07:35.541Z,100907.53
2023-02-18T21:10:04.100Z,100908.13
2023-02-18T21:12:31.299Z,100906.97
2023-02-18T21:15:01.128Z,100911.31
2023-02-18T21:17:28.401Z,100912.88
2023-02-18T21:19:55.622Z,100906.88
2023-02-18T21:22:22.860Z,100910.72
2023-02-18T21:24:51.579Z,100910.38
2023-02-18T21:27:18.831Z,100906.53
2023-02-18T21:29:46.155Z,100911.50
2023-02-18T21:32:13.542Z,100907.41
2023-02-18T21:34:41.405Z,100901.09
2023-02-18T21:37:08.898Z,100904.91
2023-02-18T21:39:36.179Z,100903.78
2023-02-18T21:42:04.572Z,100903.88
2023-02-18T21:44:41.788Z,100897.75
2023-02-18T21:47:10.578Z,100908.63
2023-02-18T21:49:38.011Z,100907.16
2023-02-18T21:52:08.602Z,100912.03
2023-02-18T21:54:44.385Z,100907.13
2023-02-18T21:57:19.771Z,100907.13
2023-02-18T21:59:48.122Z,100903.69
2023-02-18T22:02:21.782Z,100902.97
2023-02-18T22:04:50.752Z,100906.13
2023-02-18T22:07:19.702Z,100899.66
2023-02-18T22:09:48.794Z,100910.31
2023-02-18T22:12:17.006Z,100911.78
2023-02-18T22:14:44.768Z,100911.56
2023-02-18T22:17:12.538Z,100901.13
2023-02-18T22:19:40.233Z,100902.03
2023-02-18T22:22:07.696Z,100904.69
2023-02-18T22:24:35.207Z,100905.16
2023-02-18T22:27:02.704Z,100918.44
2023-02-18T22:29:31.865Z,100910.25
2023-02-18T22:31:59.603Z,100911.63
2023-02-18T22:34:26.966Z,100914.75
2023-02-18T22:36:54.213Z,100909.41
2023-02-18T22:39:24.312Z,100911.38
2023-02-18T22:41:51.585Z,100909.13
2023-02-18T22:44:19.125Z,100910.44
2023-02-18T22:46:46.433Z,100912.00
2023-02-18T22:49:14.288Z,100904.34
2023-02-18T22:51:44.336Z,100906.19
2023-02-18T22:54:16.225Z,100902.47
2023-02-18T22:56:46.271Z,100902.16
2023-02-18T22:59:19.415Z,100900.47
2023-02-18T23:01:49.508Z,100900.84
2023-02-18T23:04:20.981Z,100897.31
2023-02-18T23:06:49.690Z,100896.16
2023-02-18T23:09:25.085Z,100894.59
2023-02-18T23:11:57.365Z,100892.78
2023-02-18T23:14:28.113Z,100889.16
2023-02-18T23:17:13.801Z,100895.44
2023-02-18T23:19:53.884Z,100891.31
2023-02-18T23:22:33.399Z,100890.16
2023-02-18T23:25:01.911Z,100891.22
2023-02-18T23:27:30.302Z,100891.97
2023-02-18T23:29:57.460Z,100892.75
2023-02-18T23:32:27.686Z,100891.72
2023-02-18T23:34:54.902Z,100892.53
2023-02-18T23:37:43.825Z,100890.59
2023-02-18T23:40:13.668Z,100888.81
2023-02-18T23:42:40.995Z,100891.66
2023-02-18T23:45:08.678Z,100890.72
2023-02-18T23:47:35.869Z,100898.16
2023-02-18T23:50:03.193Z,100890.34
2023-02-18T23:52:30.609Z,100890.16
2023-02-18T23:54:57.748Z,100884.59
2023-02-18T23:57:25.038Z,100893.47
2023-02-18T23:59:52.219Z,100885.94
